sensor_id;sensor_type;location;lat;lon;timestamp;P1;durP1;ratioP1;P2;durP2;ratioP2
8714;SDS011;4394;51.208;8.904;2024-02-21T00:01:50;10.20;;;4.30;;
8714;SDS011;4394;51.208;8.904;2024-02-21T00:04:38;12.37;;;4.60;;
8714;SDS011;4394;51.208;8.904;2024-02-21T00:07:26;11.03;;;4.40;;
8714;SDS011;4394;51.208;8.904;2024-02-21T00:10:16;12.87;;;5.67;;
8714;SDS011;4394;51.208;8.904;2024-02-21T00:13:04;13.50;;;5.30;;
8714;SDS011;4394;51.208;8.904;2024-02-21T00:15:52;16.07;;;5.50;;
8714;SDS011;4394;51.208;8.904;2024-02-21T00:18:41;10.87;;;5.03;;
8714;SDS011;4394;51.208;8.904;2024-02-21T00:21:29;12.73;;;5.07;;
8714;SDS011;4394;51.208;8.904;2024-02-21T00:24:18;13.60;;;5.80;;
8714;SDS011;4394;51.208;8.904;2024-02-21T00:27:07;14.93;;;5.70;;
8714;SDS011;4394;51.208;8.904;2024-02-21T00:29:55;16.10;;;5.43;;
8714;SDS011;4394;51.208;8.904;2024-02-21T00:32:43;15.70;;;5.73;;
8714;SDS011;4394;51.208;8.904;2024-02-21T00:35:31;15.63;;;5.97;;
8714;SDS011;4394;51.208;8.904;2024-02-21T00:38:19;15.43;;;5.90;;
8714;SDS011;4394;51.208;8.904;2024-02-21T00:41:07;15.73;;;6.30;;
8714;SDS011;4394;51.208;8.904;2024-02-21T00:43:56;11.40;;;5.70;;
8714;SDS011;4394;51.208;8.904;2024-02-21T00:46:44;20.63;;;6.27;;
8714;SDS011;4394;51.208;8.904;2024-02-21T00:49:33;10.13;;;5.37;;
8714;SDS011;4394;51.208;8.904;2024-02-21T00:52:21;11.87;;;5.63;;
8714;SDS011;4394;51.208;8.904;2024-02-21T00:55:09;11.60;;;5.87;;
8714;SDS011;4394;51.208;8.904;2024-02-21T00:57:58;17.37;;;5.97;;
8714;SDS011;4394;51.208;8.904;2024-02-21T01:00:47;15.60;;;5.93;;
8714;SDS011;4394;51.208;8.904;2024-02-21T01:03:36;15.13;;;5.73;;
8714;SDS011;4394;51.208;8.904;2024-02-21T01:06:26;12.17;;;6.17;;
8714;SDS011;4394;51.208;8.904;2024-02-21T01:09:14;14.77;;;6.13;;
8714;SDS011;4394;51.208;8.904;2024-02-21T01:12:03;15.93;;;6.53;;
8714;SDS011;4394;51.208;8.904;2024-02-21T01:14:51;17.70;;;6.30;;
8714;SDS011;4394;51.208;8.904;2024-02-21T01:17:40;14.60;;;6.30;;
8714;SDS011;4394;51.208;8.904;2024-02-21T01:20:29;14.33;;;7.13;;
8714;SDS011;4394;51.208;8.904;2024-02-21T01:23:17;14.67;;;6.77;;
8714;SDS011;4394;51.208;8.904;2024-02-21T01:26:05;14.07;;;5.80;;
8714;SDS011;4394;51.208;8.904;2024-02-21T01:28:54;14.93;;;6.03;;
8714;SDS011;4394;51.208;8.904;2024-02-21T01:31:42;12.77;;;6.60;;
8714;SDS011;4394;51.208;8.904;2024-02-21T01:34:32;12.57;;;6.03;;
8714;SDS011;4394;51.208;8.904;2024-02-21T01:37:20;14.53;;;6.50;;
8714;SDS011;4394;51.208;8.904;2024-02-21T01:40:09;16.07;;;6.67;;
8714;SDS011;4394;51.208;8.904;2024-02-21T01:42:57;13.80;;;6.80;;
8714;SDS011;4394;51.208;8.904;2024-02-21T01:45:46;15.47;;;6.33;;
8714;SDS011;4394;51.208;8.904;2024-02-21T01:48:37;15.03;;;6.47;;
8714;SDS011;4394;51.208;8.904;2024-02-21T01:51:26;15.77;;;6.20;;
8714;SDS011;4394;51.208;8.904;2024-02-21T01:54:15;15.43;;;6.67;;
8714;SDS011;4394;51.208;8.904;2024-02-21T01:57:04;11.40;;;6.00;;
8714;SDS011;4394;51.208;8.904;2024-02-21T01:59:53;15.07;;;7.47;;
8714;SDS011;4394;51.208;8.904;2024-02-21T02:02:41;14.40;;;6.87;;
8714;SDS011;4394;51.208;8.904;2024-02-21T02:05:30;14.13;;;6.90;;
8714;SDS011;4394;51.208;8.904;2024-02-21T02:08:19;14.77;;;7.00;;
8714;SDS011;4394;51.208;8.904;2024-02-21T02:11:08;12.87;;;6.87;;
8714;SDS011;4394;51.208;8.904;2024-02-21T02:13:57;13.63;;;6.73;;
8714;SDS011;4394;51.208;8.904;2024-02-21T02:16:46;13.20;;;6.73;;
8714;SDS011;4394;51.208;8.904;2024-02-21T02:19:34;13.17;;;6.50;;
8714;SDS011;4394;51.208;8.904;2024-02-21T02:22:25;17.23;;;6.53;;
8714;SDS011;4394;51.208;8.904;2024-02-21T02:25:17;12.87;;;6.90;;
8714;SDS011;4394;51.208;8.904;2024-02-21T02:28:06;14.83;;;6.70;;
8714;SDS011;4394;51.208;8.904;2024-02-21T02:30:54;18.07;;;7.43;;
8714;SDS011;4394;51.208;8.904;2024-02-21T02:33:42;14.80;;;6.20;;
8714;SDS011;4394;51.208;8.904;2024-02-21T02:36:32;12.93;;;7.27;;
8714;SDS011;4394;51.208;8.904;2024-02-21T02:39:20;13.13;;;6.87;;
8714;SDS011;4394;51.208;8.904;2024-02-21T02:42:09;12.30;;;6.97;;
8714;SDS011;4394;51.208;8.904;2024-02-21T02:44:57;14.33;;;7.70;;
8714;SDS011;4394;51.208;8.904;2024-02-21T02:47:45;16.67;;;6.83;;
8714;SDS011;4394;51.208;8.904;2024-02-21T02:50:34;15.40;;;7.27;;
8714;SDS011;4394;51.208;8.904;2024-02-21T02:53:22;13.63;;;7.17;;
8714;SDS011;4394;51.208;8.904;2024-02-21T02:56:13;14.90;;;7.33;;
8714;SDS011;4394;51.208;8.904;2024-02-21T02:59:03;13.83;;;7.73;;
8714;SDS011;4394;51.208;8.904;2024-02-21T03:01:51;12.40;;;7.10;;
8714;SDS011;4394;51.208;8.904;2024-02-21T03:04:40;17.60;;;7.80;;
8714;SDS011;4394;51.208;8.904;2024-02-21T03:07:28;17.60;;;7.93;;
8714;SDS011;4394;51.208;8.904;2024-02-21T03:10:16;16.43;;;7.47;;
8714;SDS011;4394;51.208;8.904;2024-02-21T03:13:05;15.80;;;8.27;;
8714;SDS011;4394;51.208;8.904;2024-02-21T03:15:54;13.13;;;7.43;;
8714;SDS011;4394;51.208;8.904;2024-02-21T03:18:43;12.80;;;6.73;;
8714;SDS011;4394;51.208;8.904;2024-02-21T03:21:31;12.77;;;6.77;;
8714;SDS011;4394;51.208;8.904;2024-02-21T03:24:19;14.50;;;7.83;;
8714;SDS011;4394;51.208;8.904;2024-02-21T03:27:07;17.27;;;7.80;;
8714;SDS011;4394;51.208;8.904;2024-02-21T03:29:55;16.27;;;7.30;;
8714;SDS011;4394;51.208;8.904;2024-02-21T03:32:44;13.13;;;7.10;;
8714;SDS011;4394;51.208;8.904;2024-02-21T03:35:32;13.43;;;7.03;;
8714;SDS011;4394;51.208;8.904;2024-02-21T03:38:21;14.80;;;7.37;;
8714;SDS011;4394;51.208;8.904;2024-02-21T03:41:09;16.63;;;7.47;;
8714;SDS011;4394;51.208;8.904;2024-02-21T03:43:57;12.23;;;7.60;;
8714;SDS011;4394;51.208;8.904;2024-02-21T03:46:45;14.43;;;7.77;;
8714;SDS011;4394;51.208;8.904;2024-02-21T03:49:34;13.67;;;7.13;;
8714;SDS011;4394;51.208;8.904;2024-02-21T03:52:23;14.20;;;7.50;;
8714;SDS011;4394;51.208;8.904;2024-02-21T03:55:11;14.37;;;6.60;;
8714;SDS011;4394;51.208;8.904;2024-02-21T03:57:59;12.90;;;6.80;;
8714;SDS011;4394;51.208;8.904;2024-02-21T04:00:47;13.83;;;7.57;;
8714;SDS011;4394;51.208;8.904;2024-02-21T04:03:35;15.60;;;7.17;;
8714;SDS011;4394;51.208;8.904;2024-02-21T04:06:24;13.37;;;7.30;;
8714;SDS011;4394;51.208;8.904;2024-02-21T04:09:13;12.70;;;6.77;;
8714;SDS011;4394;51.208;8.904;2024-02-21T04:12:01;16.90;;;7.43;;
8714;SDS011;4394;51.208;8.904;2024-02-21T04:14:49;11.30;;;6.73;;
8714;SDS011;4394;51.208;8.904;2024-02-21T04:17:37;16.43;;;7.40;;
8714;SDS011;4394;51.208;8.904;2024-02-21T04:20:25;10.70;;;6.80;;
8714;SDS011;4394;51.208;8.904;2024-02-21T04:23:15;12.63;;;7.10;;
8714;SDS011;4394;51.208;8.904;2024-02-21T04:26:03;12.87;;;7.07;;
8714;SDS011;4394;51.208;8.904;2024-02-21T04:28:51;13.97;;;7.40;;
8714;SDS011;4394;51.208;8.904;2024-02-21T04:31:39;16.03;;;6.80;;
8714;SDS011;4394;51.208;8.904;2024-02-21T04:34:27;14.87;;;7.27;;
8714;SDS011;4394;51.208;8.904;2024-02-21T04:37:16;16.43;;;6.87;;
8714;SDS011;4394;51.208;8.904;2024-02-21T04:40:06;15.23;;;7.00;;
8714;SDS011;4394;51.208;8.904;2024-02-21T04:42:55;16.30;;;6.50;;
8714;SDS011;4394;51.208;8.904;2024-02-21T04:45:44;14.67;;;7.23;;
8714;SDS011;4394;51.208;8.904;2024-02-21T04:48:32;10.63;;;6.37;;
8714;SDS011;4394;51.208;8.904;2024-02-21T04:51:20;12.73;;;6.47;;
8714;SDS011;4394;51.208;8.904;2024-02-21T04:54:08;14.03;;;6.90;;
8714;SDS011;4394;51.208;8.904;2024-02-21T04:56:57;11.73;;;6.27;;
8714;SDS011;4394;51.208;8.904;2024-02-21T04:59:45;14.10;;;6.77;;
8714;SDS011;4394;51.208;8.904;2024-02-21T05:02:34;12.33;;;6.90;;
8714;SDS011;4394;51.208;8.904;2024-02-21T05:05:22;10.20;;;5.83;;
8714;SDS011;4394;51.208;8.904;2024-02-21T05:08:10;12.83;;;6.37;;
8714;SDS011;4394;51.208;8.904;2024-02-21T05:10:58;12.60;;;6.33;;
8714;SDS011;4394;51.208;8.904;2024-02-21T05:13:47;13.43;;;6.33;;
8714;SDS011;4394;51.208;8.904;2024-02-21T05:16:35;10.67;;;6.10;;
8714;SDS011;4394;51.208;8.904;2024-02-21T05:19:23;10.43;;;6.27;;
8714;SDS011;4394;51.208;8.904;2024-02-21T05:22:12;11.43;;;6.33;;
8714;SDS011;4394;51.208;8.904;2024-02-21T05:25:00;11.23;;;6.73;;
8714;SDS011;4394;51.208;8.904;2024-02-21T05:27:50;12.23;;;6.40;;
8714;SDS011;4394;51.208;8.904;2024-02-21T05:30:41;10.33;;;6.03;;
8714;SDS011;4394;51.208;8.904;2024-02-21T05:33:30;15.87;;;6.70;;
8714;SDS011;4394;51.208;8.904;2024-02-21T05:36:18;10.97;;;6.00;;
8714;SDS011;4394;51.208;8.904;2024-02-21T05:39:06;13.60;;;6.17;;
8714;SDS011;4394;51.208;8.904;2024-02-21T05:41:54;9.83;;;5.77;;
8714;SDS011;4394;51.208;8.904;2024-02-21T05:44:42;12.50;;;5.90;;
8714;SDS011;4394;51.208;8.904;2024-02-21T05:47:32;9.87;;;5.93;;
8714;SDS011;4394;51.208;8.904;2024-02-21T05:50:20;11.37;;;5.80;;
8714;SDS011;4394;51.208;8.904;2024-02-21T05:53:10;10.37;;;6.07;;
8714;SDS011;4394;51.208;8.904;2024-02-21T05:55:58;9.40;;;5.87;;
8714;SDS011;4394;51.208;8.904;2024-02-21T05:58:47;8.97;;;5.30;;
8714;SDS011;4394;51.208;8.904;2024-02-21T06:01:36;10.67;;;5.50;;
8714;SDS011;4394;51.208;8.904;2024-02-21T06:04:25;12.83;;;5.17;;
8714;SDS011;4394;51.208;8.904;2024-02-21T06:07:13;9.07;;;5.07;;
8714;SDS011;4394;51.208;8.904;2024-02-21T06:10:02;10.17;;;5.57;;
8714;SDS011;4394;51.208;8.904;2024-02-21T06:12:51;11.63;;;5.47;;
8714;SDS011;4394;51.208;8.904;2024-02-21T06:15:39;11.20;;;5.20;;
8714;SDS011;4394;51.208;8.904;2024-02-21T06:18:27;9.07;;;5.13;;
8714;SDS011;4394;51.208;8.904;2024-02-21T06:21:17;12.57;;;5.33;;
8714;SDS011;4394;51.208;8.904;2024-02-21T06:24:05;8.70;;;4.87;;
8714;SDS011;4394;51.208;8.904;2024-02-21T06:26:53;10.17;;;5.33;;
8714;SDS011;4394;51.208;8.904;2024-02-21T06:29:41;8.23;;;4.50;;
8714;SDS011;4394;51.208;8.904;2024-02-21T06:32:29;10.17;;;4.57;;
8714;SDS011;4394;51.208;8.904;2024-02-21T06:35:17;10.07;;;5.03;;
8714;SDS011;4394;51.208;8.904;2024-02-21T06:38:08;12.60;;;5.13;;
8714;SDS011;4394;51.208;8.904;2024-02-21T06:40:56;7.93;;;5.20;;
8714;SDS011;4394;51.208;8.904;2024-02-21T06:43:47;10.50;;;5.40;;
8714;SDS011;4394;51.208;8.904;2024-02-21T06:46:36;6.70;;;4.20;;
8714;SDS011;4394;51.208;8.904;2024-02-21T06:49:24;8.00;;;4.43;;
8714;SDS011;4394;51.208;8.904;2024-02-21T06:52:13;9.97;;;4.70;;
8714;SDS011;4394;51.208;8.904;2024-02-21T06:55:05;9.63;;;4.30;;
8714;SDS011;4394;51.208;8.904;2024-02-21T06:57:53;8.57;;;4.47;;
8714;SDS011;4394;51.208;8.904;2024-02-21T07:00:42;7.20;;;3.90;;
8714;SDS011;4394;51.208;8.904;2024-02-21T07:03:30;6.93;;;4.10;;
8714;SDS011;4394;51.208;8.904;2024-02-21T07:06:18;9.70;;;4.77;;
8714;SDS011;4394;51.208;8.904;2024-02-21T07:09:06;9.03;;;4.67;;
8714;SDS011;4394;51.208;8.904;2024-02-21T07:11:55;12.40;;;4.80;;
8714;SDS011;4394;51.208;8.904;2024-02-21T07:14:44;9.03;;;4.43;;
8714;SDS011;4394;51.208;8.904;2024-02-21T07:17:32;9.30;;;4.23;;
8714;SDS011;4394;51.208;8.904;2024-02-21T07:20:20;9.07;;;4.40;;
8714;SDS011;4394;51.208;8.904;2024-02-21T07:23:08;9.07;;;4.03;;
8714;SDS011;4394;51.208;8.904;2024-02-21T07:25:56;8.17;;;5.23;;
8714;SDS011;4394;51.208;8.904;2024-02-21T07:28:46;9.77;;;5.47;;
8714;SDS011;4394;51.208;8.904;2024-02-21T07:31:38;8.00;;;4.70;;
8714;SDS011;4394;51.208;8.904;2024-02-21T07:34:27;8.70;;;5.17;;
8714;SDS011;4394;51.208;8.904;2024-02-21T07:37:16;7.37;;;4.43;;
8714;SDS011;4394;51.208;8.904;2024-02-21T07:40:05;9.60;;;4.33;;
8714;SDS011;4394;51.208;8.904;2024-02-21T07:42:54;11.37;;;4.37;;
8714;SDS011;4394;51.208;8.904;2024-02-21T07:45:43;7.60;;;4.00;;
8714;SDS011;4394;51.208;8.904;2024-02-21T07:48:31;11.03;;;4.60;;
8714;SDS011;4394;51.208;8.904;2024-02-21T07:51:21;7.67;;;4.47;;
8714;SDS011;4394;51.208;8.904;2024-02-21T07:54:09;8.03;;;4.50;;
8714;SDS011;4394;51.208;8.904;2024-02-21T07:57:01;10.00;;;4.73;;
8714;SDS011;4394;51.208;8.904;2024-02-21T07:59:49;7.50;;;3.93;;
8714;SDS011;4394;51.208;8.904;2024-02-21T08:02:39;10.43;;;4.10;;
8714;SDS011;4394;51.208;8.904;2024-02-21T08:05:29;9.00;;;4.77;;
8714;SDS011;4394;51.208;8.904;2024-02-21T08:08:17;7.40;;;4.30;;
8714;SDS011;4394;51.208;8.904;2024-02-21T08:11:08;9.73;;;4.37;;
8714;SDS011;4394;51.208;8.904;2024-02-21T08:13:56;7.87;;;4.27;;
8714;SDS011;4394;51.208;8.904;2024-02-21T08:16:44;13.03;;;4.97;;
8714;SDS011;4394;51.208;8.904;2024-02-21T08:19:34;9.70;;;4.20;;
8714;SDS011;4394;51.208;8.904;2024-02-21T08:22:22;9.77;;;4.27;;
8714;SDS011;4394;51.208;8.904;2024-02-21T08:25:12;6.17;;;4.30;;
8714;SDS011;4394;51.208;8.904;2024-02-21T08:28:00;11.37;;;3.80;;
8714;SDS011;4394;51.208;8.904;2024-02-21T08:30:48;8.63;;;3.57;;
8714;SDS011;4394;51.208;8.904;2024-02-21T08:33:36;11.50;;;4.67;;
8714;SDS011;4394;51.208;8.904;2024-02-21T08:36:26;8.57;;;4.37;;
8714;SDS011;4394;51.208;8.904;2024-02-21T08:39:14;9.27;;;4.50;;
8714;SDS011;4394;51.208;8.904;2024-02-21T08:42:03;8.77;;;4.30;;
8714;SDS011;4394;51.208;8.904;2024-02-21T08:44:52;8.97;;;3.57;;
8714;SDS011;4394;51.208;8.904;2024-02-21T08:47:40;6.97;;;4.30;;
8714;SDS011;4394;51.208;8.904;2024-02-21T08:50:29;8.50;;;4.00;;
8714;SDS011;4394;51.208;8.904;2024-02-21T08:53:19;8.93;;;4.30;;
8714;SDS011;4394;51.208;8.904;2024-02-21T08:56:07;9.27;;;4.00;;
8714;SDS011;4394;51.208;8.904;2024-02-21T08:58:55;6.67;;;4.10;;
8714;SDS011;4394;51.208;8.904;2024-02-21T09:01:44;9.23;;;4.17;;
8714;SDS011;4394;51.208;8.904;2024-02-21T09:04:33;7.33;;;3.93;;
8714;SDS011;4394;51.208;8.904;2024-02-21T09:07:21;8.17;;;4.17;;
8714;SDS011;4394;51.208;8.904;2024-02-21T09:10:11;8.00;;;4.13;;
8714;SDS011;4394;51.208;8.904;2024-02-21T09:12:59;7.33;;;4.43;;
8714;SDS011;4394;51.208;8.904;2024-02-21T09:15:50;8.60;;;3.77;;
8714;SDS011;4394;51.208;8.904;2024-02-21T09:18:38;6.13;;;3.63;;
8714;SDS011;4394;51.208;8.904;2024-02-21T09:21:26;8.97;;;3.83;;
8714;SDS011;4394;51.208;8.904;2024-02-21T09:24:14;7.00;;;3.70;;
8714;SDS011;4394;51.208;8.904;2024-02-21T09:27:04;6.30;;;4.00;;
8714;SDS011;4394;51.208;8.904;2024-02-21T09:29:52;10.00;;;3.67;;
8714;SDS011;4394;51.208;8.904;2024-02-21T09:32:41;12.07;;;3.67;;
8714;SDS011;4394;51.208;8.904;2024-02-21T09:35:29;6.70;;;3.67;;
8714;SDS011;4394;51.208;8.904;2024-02-21T09:38:17;7.97;;;3.70;;
8714;SDS011;4394;51.208;8.904;2024-02-21T09:41:08;8.10;;;3.80;;
8714;SDS011;4394;51.208;8.904;2024-02-21T09:44:08;8.57;;;3.60;;
8714;SDS011;4394;51.208;8.904;2024-02-21T09:47:02;6.13;;;3.23;;
8714;SDS011;4394;51.208;8.904;2024-02-21T09:49:51;8.67;;;3.70;;
8714;SDS011;4394;51.208;8.904;2024-02-21T09:52:43;10.13;;;4.20;;
8714;SDS011;4394;51.208;8.904;2024-02-21T09:55:33;8.90;;;3.90;;
8714;SDS011;4394;51.208;8.904;2024-02-21T09:58:22;9.60;;;4.03;;
8714;SDS011;4394;51.208;8.904;2024-02-21T10:01:15;8.87;;;3.90;;
8714;SDS011;4394;51.208;8.904;2024-02-21T10:04:19;7.60;;;3.67;;
8714;SDS011;4394;51.208;8.904;2024-02-21T10:07:08;4.97;;;3.60;;
8714;SDS011;4394;51.208;8.904;2024-02-21T10:10:01;7.43;;;3.77;;
8714;SDS011;4394;51.208;8.904;2024-02-21T10:12:49;7.17;;;3.43;;
8714;SDS011;4394;51.208;8.904;2024-02-21T10:15:37;8.53;;;3.37;;
8714;SDS011;4394;51.208;8.904;2024-02-21T10:18:27;7.20;;;3.67;;
8714;SDS011;4394;51.208;8.904;2024-02-21T10:21:15;6.40;;;3.40;;
8714;SDS011;4394;51.208;8.904;2024-02-21T10:24:05;7.37;;;3.63;;
8714;SDS011;4394;51.208;8.904;2024-02-21T10:26:58;8.57;;;3.60;;
8714;SDS011;4394;51.208;8.904;2024-02-21T10:29:48;9.70;;;3.80;;
8714;SDS011;4394;51.208;8.904;2024-02-21T10:32:37;9.30;;;3.87;;
8714;SDS011;4394;51.208;8.904;2024-02-21T10:35:36;8.30;;;3.40;;
8714;SDS011;4394;51.208;8.904;2024-02-21T10:38:25;8.90;;;3.83;;
8714;SDS011;4394;51.208;8.904;2024-02-21T10:41:14;8.10;;;3.43;;
8714;SDS011;4394;51.208;8.904;2024-02-21T10:44:03;7.77;;;3.73;;
8714;SDS011;4394;51.208;8.904;2024-02-21T10:46:55;6.77;;;3.87;;
8714;SDS011;4394;51.208;8.904;2024-02-21T10:49:44;8.07;;;3.90;;
8714;SDS011;4394;51.208;8.904;2024-02-21T10:52:38;7.67;;;3.27;;
8714;SDS011;4394;51.208;8.904;2024-02-21T10:55:36;7.07;;;3.20;;
8714;SDS011;4394;51.208;8.904;2024-02-21T10:58:29;8.10;;;3.97;;
8714;SDS011;4394;51.208;8.904;2024-02-21T11:01:18;7.77;;;2.97;;
8714;SDS011;4394;51.208;8.904;2024-02-21T11:04:07;6.13;;;3.30;;
8714;SDS011;4394;51.208;8.904;2024-02-21T11:06:57;5.47;;;3.37;;
8714;SDS011;4394;51.208;8.904;2024-02-21T11:09:51;9.23;;;4.00;;
8714;SDS011;4394;51.208;8.904;2024-02-21T11:12:42;6.77;;;3.70;;
8714;SDS011;4394;51.208;8.904;2024-02-21T11:15:31;9.40;;;3.80;;
8714;SDS011;4394;51.208;8.904;2024-02-21T11:18:23;9.30;;;3.30;;
8714;SDS011;4394;51.208;8.904;2024-02-21T11:21:11;8.33;;;4.00;;
8714;SDS011;4394;51.208;8.904;2024-02-21T11:24:00;5.83;;;3.67;;
8714;SDS011;4394;51.208;8.904;2024-02-21T11:26:49;9.53;;;4.30;;
8714;SDS011;4394;51.208;8.904;2024-02-21T11:29:42;10.63;;;4.27;;
8714;SDS011;4394;51.208;8.904;2024-02-21T11:32:31;8.37;;;4.17;;
8714;SDS011;4394;51.208;8.904;2024-02-21T11:35:19;11.47;;;4.67;;
8714;SDS011;4394;51.208;8.904;2024-02-21T11:38:08;10.93;;;4.90;;
8714;SDS011;4394;51.208;8.904;2024-02-21T11:40:58;8.00;;;4.43;;
8714;SDS011;4394;51.208;8.904;2024-02-21T11:43:49;10.20;;;4.50;;
8714;SDS011;4394;51.208;8.904;2024-02-21T11:46:38;8.00;;;4.63;;
8714;SDS011;4394;51.208;8.904;2024-02-21T11:49:28;9.97;;;4.90;;
8714;SDS011;4394;51.208;8.904;2024-02-21T11:52:16;13.20;;;4.47;;
8714;SDS011;4394;51.208;8.904;2024-02-21T11:55:07;6.53;;;3.80;;
8714;SDS011;4394;51.208;8.904;2024-02-21T11:57:56;8.17;;;3.83;;
8714;SDS011;4394;51.208;8.904;2024-02-21T12:00:45;7.40;;;4.17;;
8714;SDS011;4394;51.208;8.904;2024-02-21T12:03:33;9.83;;;4.37;;
8714;SDS011;4394;51.208;8.904;2024-02-21T12:06:22;6.97;;;3.80;;
8714;SDS011;4394;51.208;8.904;2024-02-21T12:09:13;8.33;;;4.07;;
8714;SDS011;4394;51.208;8.904;2024-02-21T12:12:02;7.20;;;3.83;;
8714;SDS011;4394;51.208;8.904;2024-02-21T12:14:54;6.33;;;3.80;;
8714;SDS011;4394;51.208;8.904;2024-02-21T12:17:45;8.40;;;3.67;;
8714;SDS011;4394;51.208;8.904;2024-02-21T12:20:34;9.07;;;4.10;;
8714;SDS011;4394;51.208;8.904;2024-02-21T12:23:25;9.00;;;4.23;;
8714;SDS011;4394;51.208;8.904;2024-02-21T12:26:14;14.60;;;11.70;;
8714;SDS011;4394;51.208;8.904;2024-02-21T12:29:03;7.97;;;4.17;;
8714;SDS011;4394;51.208;8.904;2024-02-21T12:31:51;7.63;;;4.50;;
8714;SDS011;4394;51.208;8.904;2024-02-21T12:34:41;7.70;;;3.93;;
8714;SDS011;4394;51.208;8.904;2024-02-21T12:37:39;9.63;;;4.10;;
8714;SDS011;4394;51.208;8.904;2024-02-21T12:40:28;6.50;;;3.87;;
8714;SDS011;4394;51.208;8.904;2024-02-21T12:43:19;8.03;;;4.23;;
8714;SDS011;4394;51.208;8.904;2024-02-21T12:46:08;7.50;;;4.13;;
8714;SDS011;4394;51.208;8.904;2024-02-21T12:48:57;9.57;;;4.13;;
8714;SDS011;4394;51.208;8.904;2024-02-21T12:51:46;8.60;;;4.33;;
8714;SDS011;4394;51.208;8.904;2024-02-21T12:54:34;8.53;;;4.10;;
8714;SDS011;4394;51.208;8.904;2024-02-21T12:57:23;8.67;;;4.10;;
8714;SDS011;4394;51.208;8.904;2024-02-21T13:00:13;7.60;;;3.93;;
8714;SDS011;4394;51.208;8.904;2024-02-21T13:03:03;7.03;;;4.07;;
8714;SDS011;4394;51.208;8.904;2024-02-21T13:05:51;9.03;;;4.20;;
8714;SDS011;4394;51.208;8.904;2024-02-21T13:08:40;7.97;;;3.90;;
8714;SDS011;4394;51.208;8.904;2024-02-21T13:11:30;11.00;;;3.93;;
8714;SDS011;4394;51.208;8.904;2024-02-21T13:14:19;8.40;;;3.70;;
8714;SDS011;4394;51.208;8.904;2024-02-21T13:17:09;5.93;;;3.50;;
8714;SDS011;4394;51.208;8.904;2024-02-21T13:19:57;7.90;;;3.53;;
8714;SDS011;4394;51.208;8.904;2024-02-21T13:22:46;10.20;;;4.27;;
8714;SDS011;4394;51.208;8.904;2024-02-21T13:25:35;10.37;;;3.60;;
8714;SDS011;4394;51.208;8.904;2024-02-21T13:28:23;5.70;;;3.17;;
8714;SDS011;4394;51.208;8.904;2024-02-21T13:31:11;6.97;;;3.07;;
8714;SDS011;4394;51.208;8.904;2024-02-21T13:33:59;8.07;;;3.43;;
8714;SDS011;4394;51.208;8.904;2024-02-21T13:36:48;10.20;;;3.33;;
8714;SDS011;4394;51.208;8.904;2024-02-21T13:39:36;8.10;;;3.57;;
8714;SDS011;4394;51.208;8.904;2024-02-21T13:42:26;8.13;;;3.73;;
8714;SDS011;4394;51.208;8.904;2024-02-21T13:45:14;5.77;;;2.73;;
8714;SDS011;4394;51.208;8.904;2024-02-21T13:48:02;7.87;;;3.33;;
8714;SDS011;4394;51.208;8.904;2024-02-21T13:50:53;5.27;;;3.13;;
8714;SDS011;4394;51.208;8.904;2024-02-21T13:53:40;4.90;;;3.07;;
8714;SDS011;4394;51.208;8.904;2024-02-21T13:56:29;7.33;;;3.50;;
8714;SDS011;4394;51.208;8.904;2024-02-21T13:59:19;5.93;;;3.30;;
8714;SDS011;4394;51.208;8.904;2024-02-21T14:02:07;9.57;;;3.30;;
8714;SDS011;4394;51.208;8.904;2024-02-21T14:04:55;8.93;;;3.37;;
8714;SDS011;4394;51.208;8.904;2024-02-21T14:07:43;8.80;;;3.37;;
8714;SDS011;4394;51.208;8.904;2024-02-21T14:10:31;5.37;;;3.10;;
8714;SDS011;4394;51.208;8.904;2024-02-21T14:13:20;5.57;;;2.70;;
8714;SDS011;4394;51.208;8.904;2024-02-21T14:16:10;5.37;;;3.33;;
8714;SDS011;4394;51.208;8.904;2024-02-21T14:18:59;10.10;;;2.70;;
8714;SDS011;4394;51.208;8.904;2024-02-21T14:21:48;6.63;;;2.90;;
8714;SDS011;4394;51.208;8.904;2024-02-21T14:24:36;5.97;;;3.23;;
8714;SDS011;4394;51.208;8.904;2024-02-21T14:27:24;7.80;;;2.80;;
8714;SDS011;4394;51.208;8.904;2024-02-21T14:30:12;5.63;;;3.37;;
8714;SDS011;4394;51.208;8.904;2024-02-21T14:33:02;9.17;;;3.03;;
8714;SDS011;4394;51.208;8.904;2024-02-21T14:35:51;7.17;;;3.17;;
8714;SDS011;4394;51.208;8.904;2024-02-21T14:38:39;6.20;;;2.60;;
8714;SDS011;4394;51.208;8.904;2024-02-21T14:41:28;8.20;;;3.03;;
8714;SDS011;4394;51.208;8.904;2024-02-21T14:44:16;5.23;;;2.83;;
8714;SDS011;4394;51.208;8.904;2024-02-21T14:47:05;7.03;;;2.80;;
8714;SDS011;4394;51.208;8.904;2024-02-21T14:49:55;5.47;;;2.93;;
8714;SDS011;4394;51.208;8.904;2024-02-21T14:52:43;4.77;;;2.63;;
8714;SDS011;4394;51.208;8.904;2024-02-21T14:55:31;5.67;;;2.30;;
8714;SDS011;4394;51.208;8.904;2024-02-21T14:58:19;4.17;;;2.50;;
8714;SDS011;4394;51.208;8.904;2024-02-21T15:01:07;6.00;;;2.73;;
8714;SDS011;4394;51.208;8.904;2024-02-21T15:03:55;7.10;;;2.83;;
8714;SDS011;4394;51.208;8.904;2024-02-21T15:06:45;6.83;;;2.77;;
8714;SDS011;4394;51.208;8.904;2024-02-21T15:09:35;6.23;;;2.70;;
8714;SDS011;4394;51.208;8.904;2024-02-21T15:12:23;4.83;;;2.23;;
8714;SDS011;4394;51.208;8.904;2024-02-21T15:15:11;6.83;;;2.60;;
8714;SDS011;4394;51.208;8.904;2024-02-21T15:17:59;6.97;;;2.60;;
8714;SDS011;4394;51.208;8.904;2024-02-21T15:20:47;9.67;;;3.17;;
8714;SDS011;4394;51.208;8.904;2024-02-21T15:23:37;7.23;;;2.90;;
8714;SDS011;4394;51.208;8.904;2024-02-21T15:26:25;6.83;;;2.67;;
8714;SDS011;4394;51.208;8.904;2024-02-21T15:29:13;6.57;;;3.30;;
8714;SDS011;4394;51.208;8.904;2024-02-21T15:32:01;7.77;;;3.00;;
8714;SDS011;4394;51.208;8.904;2024-02-21T15:34:50;7.97;;;2.90;;
8714;SDS011;4394;51.208;8.904;2024-02-21T15:37:38;8.03;;;3.60;;
8714;SDS011;4394;51.208;8.904;2024-02-21T15:40:28;7.53;;;3.40;;
8714;SDS011;4394;51.208;8.904;2024-02-21T15:43:17;10.17;;;3.50;;
8714;SDS011;4394;51.208;8.904;2024-02-21T15:46:05;5.93;;;3.60;;
8714;SDS011;4394;51.208;8.904;2024-02-21T15:48:53;6.13;;;3.23;;
8714;SDS011;4394;51.208;8.904;2024-02-21T15:51:41;10.13;;;4.27;;
8714;SDS011;4394;51.208;8.904;2024-02-21T15:54:29;8.83;;;3.77;;
8714;SDS011;4394;51.208;8.904;2024-02-21T15:57:19;7.47;;;4.03;;
8714;SDS011;4394;51.208;8.904;2024-02-21T16:00:07;8.67;;;4.40;;
8714;SDS011;4394;51.208;8.904;2024-02-21T16:02:58;8.27;;;4.37;;
8714;SDS011;4394;51.208;8.904;2024-02-21T16:05:47;6.93;;;4.10;;
8714;SDS011;4394;51.208;8.904;2024-02-21T16:08:36;9.70;;;4.20;;
8714;SDS011;4394;51.208;8.904;2024-02-21T16:11:27;6.87;;;3.83;;
8714;SDS011;4394;51.208;8.904;2024-02-21T16:14:17;7.97;;;3.73;;
8714;SDS011;4394;51.208;8.904;2024-02-21T16:17:05;6.23;;;3.83;;
8714;SDS011;4394;51.208;8.904;2024-02-21T16:19:53;8.27;;;3.90;;
8714;SDS011;4394;51.208;8.904;2024-02-21T16:22:42;6.60;;;4.00;;
8714;SDS011;4394;51.208;8.904;2024-02-21T16:25:31;7.67;;;3.33;;
8714;SDS011;4394;51.208;8.904;2024-02-21T16:28:19;10.80;;;4.30;;
8714;SDS011;4394;51.208;8.904;2024-02-21T16:31:09;6.33;;;3.93;;
8714;SDS011;4394;51.208;8.904;2024-02-21T16:33:59;9.83;;;3.97;;
8714;SDS011;4394;51.208;8.904;2024-02-21T16:36:47;6.33;;;3.80;;
8714;SDS011;4394;51.208;8.904;2024-02-21T16:39:35;10.20;;;3.93;;
8714;SDS011;4394;51.208;8.904;2024-02-21T16:42:23;10.97;;;3.80;;
8714;SDS011;4394;51.208;8.904;2024-02-21T16:45:11;9.40;;;4.20;;
8714;SDS011;4394;51.208;8.904;2024-02-21T16:48:02;11.30;;;3.60;;
8714;SDS011;4394;51.208;8.904;2024-02-21T16:50:52;5.93;;;3.60;;
8714;SDS011;4394;51.208;8.904;2024-02-21T16:53:46;11.67;;;3.73;;
8714;SDS011;4394;51.208;8.904;2024-02-21T16:56:35;7.80;;;4.30;;
8714;SDS011;4394;51.208;8.904;2024-02-21T16:59:23;8.80;;;3.60;;
8714;SDS011;4394;51.208;8.904;2024-02-21T17:02:11;8.90;;;3.83;;
8714;SDS011;4394;51.208;8.904;2024-02-21T17:05:01;10.23;;;4.20;;
8714;SDS011;4394;51.208;8.904;2024-02-21T17:07:50;10.20;;;4.33;;
8714;SDS011;4394;51.208;8.904;2024-02-21T17:10:38;11.27;;;3.90;;
8714;SDS011;4394;51.208;8.904;2024-02-21T17:13:27;10.00;;;4.13;;
8714;SDS011;4394;51.208;8.904;2024-02-21T17:16:15;11.53;;;4.87;;
8714;SDS011;4394;51.208;8.904;2024-02-21T17:19:03;8.83;;;3.73;;
8714;SDS011;4394;51.208;8.904;2024-02-21T17:21:54;8.63;;;4.47;;
8714;SDS011;4394;51.208;8.904;2024-02-21T17:24:42;9.73;;;4.17;;